Time;durP1;ratioP1;P1;durP2;ratioP2;P2;SDS_P1;SDS_P2;PMS_P1;PMS_P2;Temp;Humidity;BMP_temperature;BMP_pressure;BME280_temperature;BME280_humidity;BME280_pressure;Samples;Min_cycle;Max_cycle;Signal;HPM_P1;HPM_P2
2021/09/05 00:01:06;;;;;;;;;;;;;;;;;;5095048;28;19925;-78
2021/09/05 00:03:33;;;;;;;;;;;;;;;;;;5095630;28;19931;-78
2021/09/05 00:05:59;;;;;;;;;;;;;;;;;;5095644;28;19924;-78
2021/09/05 00:08:25;;;;;;;;;;;;;;;;;;5095149;28;19924;-78
2021/09/05 00:10:52;;;;;;;;;;;;;;;;;;5095244;28;19930;-78
2021/09/05 00:13:18;;;;;;;;;;;;;;;;;;5095257;28;19934;-78
2021/09/05 00:15:44;;;;;;;;;;;;;;;;;;5095045;28;20404;-78
2021/09/05 00:18:11;;;;;;;;;;;;;;;;;;5095145;28;19924;-78
2021/09/05 00:20:37;;;;;;;;;;;;;;;;;;5094834;28;19931;-78
2021/09/05 00:23:03;;;;;;;;;;;;;;;;;;5094198;28;20370;-78
2021/09/05 00:25:30;;;;;;;;;;;;;;;;;;5094706;28;19924;-78
2021/09/05 00:27:56;;;;;;;;;;;;;;;;;;5095142;28;19925;-78
2021/09/05 00:30:22;;;;;;;;;;;;;;;;;;5094637;28;20298;-78
2021/09/05 00:32:49;;;;;;;;;;;;;;;;;;5094730;28;19924;-78
2021/09/05 00:35:15;;;;;;;;;;;;;;;;;;5094876;28;19924;-78
2021/09/05 00:37:41;;;;;;;;;;;;;;;;;;5094887;28;19928;-78
2021/09/05 00:40:08;;;;;;;;;;;;;;;;;;5094397;28;20410;-77
2021/09/05 00:42:34;;;;;;;;;;;;;;;;;;5094614;28;19930;-78
2021/09/05 00:45:00;;;;;;;;;;;;;;;;;;5094652;28;19924;-77
2021/09/05 00:47:27;;;;;;;;;;;;;;;;;;5094657;28;20314;-77
2021/09/05 00:49:53;;;;;;;;;;;;;;;;;;5094509;28;19924;-78
2021/09/05 00:52:19;;;;;;;;;;;;;;;;;;5094456;28;19931;-78
2021/09/05 00:54:45;;;;;;;;;;;;;;;;;;5094636;28;19924;-77
2021/09/05 00:57:12;;;;;;;;;;;;;;;;;;5094113;28;19924;-77
2021/09/05 00:59:38;;;;;;;;;;;;;;;;;;5094216;28;19928;-78
2021/09/05 01:02:04;;;;;;;;;;;;;;;;;;5094199;28;19924;-78
2021/09/05 01:04:31;;;;;;;;;;;;;;;;;;5094484;28;20281;-78
2021/09/05 01:06:57;;;;;;;;;;;;;;;;;;5094025;28;19931;-78
2021/09/05 01:09:23;;;;;;;;;;;;;;;;;;5094064;28;19924;-78
2021/09/05 01:11:50;;;;;;;;;;;;;;;;;;5094058;28;20390;-78
2021/09/05 01:14:16;;;;;;;;;;;;;;;;;;5093761;28;19932;-78
2021/09/05 01:16:42;;;;;;;;;;;;;;;;;;5094197;28;19930;-78
2021/09/05 01:19:08;;;;;;;;;;;;;;;;;;5093566;28;20549;-78
2021/09/05 01:21:35;;;;;;;;;;;;;;;;;;5093851;28;19925;-78
2021/09/05 01:24:01;;;;;;;;;;;;;;;;;;5093476;28;19924;-78
2021/09/05 01:26:27;;;;;;;;;;;;;;;;;;5093713;28;19924;-78
2021/09/05 01:28:54;;;;;;;;;;;;;;;;;;5093651;28;19931;-78
2021/09/05 01:31:20;;;;;;;;;;;;;;;;;;5093669;28;19928;-78
2021/09/05 01:33:46;;;;;;;;;;;;;;;;;;5093702;28;20301;-78
2021/09/05 01:36:13;;;;;;;;;;;;;;;;;;5093307;28;19924;-78
2021/09/05 01:38:39;;;;;;;;;;;;;;;;;;5093868;28;19928;-78
2021/09/05 01:41:05;;;;;;;;;;;;;;;;;;5093283;28;20290;-78
2021/09/05 01:43:31;;;;;;;;;;;;;;;;;;5093333;28;19924;-78
2021/09/05 01:45:58;;;;;;;;;;;;;;;;;;5093670;28;19924;-78
2021/09/05 01:48:24;;;;;;;;;;;;;;;;;;5093119;28;19931;-78
2021/09/05 01:50:50;;;;;;;;;;;;;;;;;;5093351;28;19924;-78
2021/09/05 01:53:17;;;;;;;;;;;;;;;;;;5093362;28;19928;-78
2021/09/05 01:55:43;;;;;;;;;;;;;;;;;;5093177;28;19931;-78
2021/09/05 01:58:09;;;;;;;;;;;;;;;;;;5092834;28;19928;-78
2021/09/05 02:00:36;;;;;;;;;;;;;;;;;;5093387;28;19924;-78
2021/09/05 02:03:02;;;;;;;;;;;;;;;;;;5093225;28;19930;-78
2021/09/05 02:05:28;;;;;;;;;;;;;;;;;;5093000;28;20285;-78
2021/09/05 02:07:54;;;;;;;;;;;;;;;;;;5092858;28;19931;-78
2021/09/05 02:10:21;;;;;;;;;;;;;;;;;;5093053;28;19931;-78
2021/09/05 02:12:47;;;;;;;;;;;;;;;;;;5093016;28;19931;-78
2021/09/05 02:15:13;;;;;;;;;;;;;;;;;;5092867;28;19928;-78
2021/09/05 02:17:40;;;;;;;;;;;;;;;;;;5093094;28;19928;-78
2021/09/05 02:20:06;;;;;;;;;;;;;;;;;;5092677;28;20362;-78
2021/09/05 02:22:32;;;;;;;;;;;;;;;;;;5092615;28;19924;-78
2021/09/05 02:24:59;;;;;;;;;;;;;;;;;;5093192;28;19924;-78
2021/09/05 02:27:25;;;;;;;;;;;;;;;;;;5092832;28;19924;-77
2021/09/05 02:29:51;;;;;;;;;;;;;;;;;;5092988;28;19931;-78
2021/09/05 02:32:17;;;;;;;;;;;;;;;;;;5092701;28;19927;-78
2021/09/05 02:34:44;;;;;;;;;;;;;;;;;;5092669;28;19924;-78
2021/09/05 02:37:10;;;;;;;;;;;;;;;;;;5092415;28;19934;-78
2021/09/05 02:39:36;;;;;;;;;;;;;;;;;;5092617;28;20370;-78
2021/09/05 02:42:03;;;;;;;;;;;;;;;;;;5092160;28;19924;-78
2021/09/05 02:44:29;;;;;;;;;;;;;;;;;;5095307;28;19924;-78
2021/09/05 02:46:55;;;;;;;;;;;;;;;;;;5099245;28;19931;-78
2021/09/05 02:49:22;;;;;;;;;;;;;;;;;;5099432;28;19924;-78
2021/09/05 02:51:48;;;;;;;;;;;;;;;;;;5099280;28;20370;-78
2021/09/05 02:54:14;;;;;;;;;;;;;;;;;;5099003;28;19924;-78
2021/09/05 02:56:40;;;;;;;;;;;;;;;;;;5099389;28;19928;-78
2021/09/05 02:59:07;;;;;;;;;;;;;;;;;;5098947;28;19924;-78
2021/09/05 03:01:33;;;;;;;;;;;;;;;;;;5099134;28;19925;-77
2021/09/05 03:03:59;;;;;;;;;;;;;;;;;;5099442;28;19924;-78
2021/09/05 03:06:26;;;;;;;;;;;;;;;;;;5099001;28;20378;-78
2021/09/05 03:08:52;;;;;;;;;;;;;;;;;;5099464;28;19924;-78
2021/09/05 03:11:18;;;;;;;;;;;;;;;;;;5099152;28;20302;-78
2021/09/05 03:13:47;;;;;;;;;;;;;;;;;;5098928;28;19924;-78
2021/09/05 03:16:13;;;;;;;;;;;;;;;;;;5098813;28;19942;-78
2021/09/05 03:18:40;;;;;;;;;;;;;;;;;;5099238;28;19931;-78
2021/09/05 03:21:06;;;;;;;;;;;;;;;;;;5099027;28;20286;-77
2021/09/05 03:23:32;;;;;;;;;;;;;;;;;;5098781;28;19924;-78
2021/09/05 03:25:59;;;;;;;;;;;;;;;;;;5099190;28;19925;-78
2021/09/05 03:28:25;;;;;;;;;;;;;;;;;;5098891;28;20310;-78
2021/09/05 03:30:51;;;;;;;;;;;;;;;;;;5099049;28;20010;-78
2021/09/05 03:33:17;;;;;;;;;;;;;;;;;;5098942;28;19924;-78
2021/09/05 03:35:46;;;;;;;;;;;;;;;;;;5098116;28;20442;-78
2021/09/05 03:38:12;;;;;;;;;;;;;;;;;;5098572;28;19932;-78
2021/09/05 03:40:38;;;;;;;;;;;;;;;;;;5099009;28;19924;-78
2021/09/05 03:43:05;;;;;;;;;;;;;;;;;;5098967;28;19930;-78
2021/09/05 03:45:31;;;;;;;;;;;;;;;;;;5098763;28;20397;-78
2021/09/05 03:47:57;;;;;;;;;;;;;;;;;;5098800;28;19935;-78
2021/09/05 03:50:23;;;;;;;;;;;;;;;;;;5098818;28;19924;-78
2021/09/05 03:52:50;;;;;;;;;;;;;;;;;;5098736;28;20271;-78
2021/09/05 03:55:16;;;;;;;;;;;;;;;;;;5097676;28;19924;-79
2021/09/05 03:57:42;;;;;;;;;;;;;;;;;;5094744;28;19924;-78
2021/09/05 04:00:09;;;;;;;;;;;;;;;;;;5095706;28;19924;-78
2021/09/05 04:02:35;;;;;;;;;;;;;;;;;;5095900;28;20284;-78
2021/09/05 04:05:01;;;;;;;;;;;;;;;;;;5094998;28;19928;-78
2021/09/05 04:07:28;;;;;;;;;;;;;;;;;;5095535;28;19924;-78
2021/09/05 04:10:09;;;;;;;;;;;;;;;;;;5095299;28;20401;-78
2021/09/05 04:12:36;;;;;;;;;;;;;;;;;;5095466;28;19932;-78
2021/09/05 04:15:02;;;;;;;;;;;;;;;;;;5095074;28;20267;-78
2021/09/05 04:17:28;;;;;;;;;;;;;;;;;;5095146;28;19930;-78
2021/09/05 04:19:54;;;;;;;;;;;;;;;;;;5095362;28;19931;-78
2021/09/05 04:22:21;;;;;;;;;;;;;;;;;;5094791;28;20410;-78
2021/09/05 04:24:47;;;;;;;;;;;;;;;;;;5095045;28;19930;-78
2021/09/05 04:27:13;;;;;;;;;;;;;;;;;;5095219;28;19935;-78
2021/09/05 04:29:40;;;;;;;;;;;;;;;;;;5094826;28;20382;-78
2021/09/05 04:32:06;;;;;;;;;;;;;;;;;;5094631;28;19924;-78
2021/09/05 04:34:32;;;;;;;;;;;;;;;;;;5095332;28;19958;-78
2021/09/05 04:36:58;;;;;;;;;;;;;;;;;;5094728;28;20405;-78
2021/09/05 04:39:25;;;;;;;;;;;;;;;;;;5095140;28;19924;-78
2021/09/05 04:41:51;;;;;;;;;;;;;;;;;;5094829;28;19928;-78
2021/09/05 04:44:17;;;;;;;;;;;;;;;;;;5094366;28;19924;-78
2021/09/05 04:46:44;;;;;;;;;;;;;;;;;;5094824;28;19924;-78
2021/09/05 04:49:10;;;;;;;;;;;;;;;;;;5094731;28;19930;-78
2021/09/05 04:51:36;;;;;;;;;;;;;;;;;;5094602;28;19939;-78
2021/09/05 04:54:03;;;;;;;;;;;;;;;;;;5094271;28;19924;-78
2021/09/05 04:56:29;;;;;;;;;;;;;;;;;;5094934;28;19924;-78
2021/09/05 04:58:55;;;;;;;;;;;;;;;;;;5094377;28;19931;-78
2021/09/05 05:01:21;;;;;;;;;;;;;;;;;;5094336;28;19935;-78
2021/09/05 05:03:48;;;;;;;;;;;;;;;;;;5094528;28;19946;-78
2021/09/05 05:06:14;;;;;;;;;;;;;;;;;;5093772;28;19935;-78
2021/09/05 05:08:40;;;;;;;;;;;;;;;;;;5094107;28;19998;-78
2021/09/05 05:11:07;;;;;;;;;;;;;;;;;;5094105;28;19955;-78
2021/09/05 05:13:33;;;;;;;;;;;;;;;;;;5094045;28;19923;-78
2021/09/05 05:15:59;;;;;;;;;;;;;;;;;;5094345;28;19924;-78
2021/09/05 05:18:26;;;;;;;;;;;;;;;;;;5094255;28;19923;-78
2021/09/05 05:20:52;;;;;;;;;;;;;;;;;;5093879;28;20408;-78
2021/09/05 05:23:18;;;;;;;;;;;;;;;;;;5093476;28;19931;-79
2021/09/05 05:25:44;;;;;;;;;;;;;;;;;;5094029;28;19924;-78
2021/09/05 05:28:11;;;;;;;;;;;;;;;;;;5093841;28;19924;-78
2021/09/05 05:30:37;;;;;;;;;;;;;;;;;;5093756;28;19924;-78
2021/09/05 05:33:03;;;;;;;;;;;;;;;;;;5093643;28;19924;-78
2021/09/05 05:35:30;;;;;;;;;;;;;;;;;;5093983;28;20292;-78
2021/09/05 05:37:56;;;;;;;;;;;;;;;;;;5093629;28;19930;-78
2021/09/05 05:40:25;;;;;;;;;;;;;;;;;;5093492;28;19934;-78
2021/09/05 05:42:51;;;;;;;;;;;;;;;;;;5093875;28;19924;-78
2021/09/05 05:45:17;;;;;;;;;;;;;;;;;;5093208;28;20298;-78
2021/09/05 05:47:44;;;;;;;;;;;;;;;;;;5093492;28;19928;-78
2021/09/05 05:50:10;;;;;;;;;;;;;;;;;;5093528;28;19931;-78
2021/09/05 05:52:36;;;;;;;;;;;;;;;;;;5093288;28;20290;-78
2021/09/05 05:55:02;;;;;;;;;;;;;;;;;;5093011;28;19934;-77
2021/09/05 05:57:29;;;;;;;;;;;;;;;;;;5093916;28;19924;-76
2021/09/05 05:59:55;;;;;;;;;;;;;;;;;;5097958;28;19924;-78
2021/09/05 06:02:21;;;;;;;;;;;;;;;;;;5092876;28;20367;-78
2021/09/05 06:04:48;;;;;;;;;;;;;;;;;;5093380;28;19924;-78
2021/09/05 06:07:14;;;;;;;;;;;;;;;;;;5093078;28;19935;-78
2021/09/05 06:09:40;;;;;;;;;;;;;;;;;;5092939;28;19924;-78
2021/09/05 06:12:07;;;;;;;;;;;;;;;;;;5093150;28;19932;-78
2021/09/05 06:14:33;;;;;;;;;;;;;;;;;;5093221;28;19934;-78
2021/09/05 06:16:59;;;;;;;;;;;;;;;;;;5092800;28;20294;-78
2021/09/05 06:19:25;;;;;;;;;;;;;;;;;;5092187;28;19931;-78
2021/09/05 06:21:52;;;;;;;;;;;;;;;;;;5093103;28;19924;-78
2021/09/05 06:24:18;;;;;;;;;;;;;;;;;;5092307;28;19946;-75
2021/09/05 06:26:44;;;;;;;;;;;;;;;;;;5092612;28;19931;-73
2021/09/05 06:29:11;;;;;;;;;;;;;;;;;;5092801;28;19924;-73
2021/09/05 06:31:37;;;;;;;;;;;;;;;;;;5092607;28;20382;-75
2021/09/05 06:34:03;;;;;;;;;;;;;;;;;;5092523;28;19928;-72
2021/09/05 06:36:29;;;;;;;;;;;;;;;;;;5092779;28;19924;-71
2021/09/05 06:38:56;;;;;;;;;;;;;;;;;;5104304;28;19924;-70
2021/09/05 06:41:22;;;;;;;;;;;;;;;;;;5096732;28;19931;-71
2021/09/05 06:43:48;;;;;;;;;;;;;;;;;;5113272;28;20294;-70
2021/09/05 06:46:15;;;;;;;;;;;;;;;;;;5103066;28;19924;-71
2021/09/05 06:48:41;;;;;;;;;;;;;;;;;;5092809;28;19939;-71
2021/09/05 06:51:07;;;;;;;;;;;;;;;;;;5092163;28;19924;-70
2021/09/05 06:53:34;;;;;;;;;;;;;;;;;;5092422;28;19932;-70
2021/09/05 06:56:00;;;;;;;;;;;;;;;;;;5092415;28;19924;-68
2021/09/05 06:58:26;;;;;;;;;;;;;;;;;;5092466;28;19924;-69
2021/09/05 07:00:52;;;;;;;;;;;;;;;;;;5092568;28;19924;-69
2021/09/05 07:03:19;;;;;;;;;;;;;;;;;;5092379;28;20422;-70
2021/09/05 07:05:45;;;;;;;;;;;;;;;;;;5092338;28;19938;-70
2021/09/05 07:08:12;;;;;;;;;;;;;;;;;;5092256;28;19932;-70
2021/09/05 07:10:38;;;;;;;;;;;;;;;;;;5092405;28;20319;-71
2021/09/05 07:13:05;;;;;;;;;;;;;;;;;;5111416;28;19924;-70
2021/09/05 07:15:31;;;;;;;;;;;;;;;;;;5112792;28;19931;-70
2021/09/05 07:17:58;;;;;;;;;;;;;;;;;;5112740;28;19924;-71
2021/09/05 07:20:24;;;;;;;;;;;;;;;;;;5112697;28;19928;-72
2021/09/05 07:22:50;;;;;;;;;;;;;;;;;;5112454;28;19924;-71
2021/09/05 07:25:18;;;;;;;;;;;;;;;;;;5112522;28;20283;-71
2021/09/05 07:27:44;;;;;;;;;;;;;;;;;;5112782;28;19931;-70
2021/09/05 07:30:11;;;;;;;;;;;;;;;;;;5112575;28;20376;-71
2021/09/05 07:32:37;;;;;;;;;;;;;;;;;;5116236;28;19930;-70
2021/09/05 07:35:03;;;;;;;;;;;;;;;;;;5116267;28;19930;-70
2021/09/05 07:37:30;;;;;;;;;;;;;;;;;;5116528;28;19947;-72
2021/09/05 07:39:56;;;;;;;;;;;;;;;;;;5116145;28;20377;-72
2021/09/05 07:42:22;;;;;;;;;;;;;;;;;;5116116;28;19931;-72
2021/09/05 07:44:48;;;;;;;;;;;;;;;;;;5116362;28;19923;-68
2021/09/05 07:47:15;;;;;;;;;;;;;;;;;;5095849;28;19935;-70
2021/09/05 07:49:41;;;;;;;;;;;;;;;;;;5095568;28;19924;-71
2021/09/05 07:52:07;;;;;;;;;;;;;;;;;;5095447;28;19931;-70
2021/09/05 07:54:34;;;;;;;;;;;;;;;;;;5095442;28;20408;-72
2021/09/05 07:57:00;;;;;;;;;;;;;;;;;;5095192;28;19931;-71
2021/09/05 07:59:26;;;;;;;;;;;;;;;;;;5095677;28;19931;-72
2021/09/05 08:01:52;;;;;;;;;;;;;;;;;;5095315;28;20393;-71
2021/09/05 08:04:19;;;;;;;;;;;;;;;;;;5094968;28;19930;-71
2021/09/05 08:06:45;;;;;;;;;;;;;;;;;;5095374;28;19932;-72
2021/09/05 08:09:11;;;;;;;;;;;;;;;;;;5094944;28;20382;-71
2021/09/05 08:11:38;;;;;;;;;;;;;;;;;;5095459;28;19924;-72
2021/09/05 08:14:04;;;;;;;;;;;;;;;;;;5095185;28;19928;-72
2021/09/05 08:16:32;;;;;;;;;;;;;;;;;;5094888;28;20378;-72
2021/09/05 08:18:59;;;;;;;;;;;;;;;;;;5095255;28;20029;-72
2021/09/05 08:21:25;;;;;;;;;;;;;;;;;;5095363;28;20267;-71
2021/09/05 08:23:51;;;;;;;;;;;;;;;;;;5094659;28;19924;-72
2021/09/05 08:26:19;;;;;;;;;;;;;;;;;;5094815;28;19924;-71
2021/09/05 08:28:45;;;;;;;;;;;;;;;;;;5094858;28;19931;-72
2021/09/05 08:31:11;;;;;;;;;;;;;;;;;;5094795;28;19931;-72
2021/09/05 08:33:38;;;;;;;;;;;;;;;;;;5094829;28;19932;-71
2021/09/05 08:36:04;;;;;;;;;;;;;;;;;;5094768;28;19928;-72
2021/09/05 08:38:30;;;;;;;;;;;;;;;;;;5095027;28;19931;-72
2021/09/05 08:40:57;;;;;;;;;;;;;;;;;;5094722;28;19931;-71
2021/09/05 08:43:23;;;;;;;;;;;;;;;;;;5093897;28;19930;-70
2021/09/05 08:45:49;;;;;;;;;;;;;;;;;;5102409;28;20301;-70
2021/09/05 08:48:16;;;;;;;;;;;;;;;;;;5114542;28;19924;-72
2021/09/05 08:50:42;;;;;;;;;;;;;;;;;;5115223;28;19924;-72
2021/09/05 08:53:08;;;;;;;;;;;;;;;;;;5114565;28;20378;-71
2021/09/05 08:55:34;;;;;;;;;;;;;;;;;;5114804;28;19927;-74
2021/09/05 08:58:01;;;;;;;;;;;;;;;;;;5114767;28;19930;-73
2021/09/05 09:00:27;;;;;;;;;;;;;;;;;;5114760;28;20281;-73
2021/09/05 09:02:53;;;;;;;;;;;;;;;;;;5114525;28;19930;-73
2021/09/05 09:05:20;;;;;;;;;;;;;;;;;;5114266;28;20374;-73
2021/09/05 09:07:47;;;;;;;;;;;;;;;;;;5114390;28;19924;-73
2021/09/05 09:10:13;;;;;;;;;;;;;;;;;;5114105;28;20495;-73
2021/09/05 09:12:39;;;;;;;;;;;;;;;;;;5114669;28;19931;-73
2021/09/05 09:15:05;;;;;;;;;;;;;;;;;;5114396;28;19969;-73
2021/09/05 09:17:32;;;;;;;;;;;;;;;;;;5114307;28;19924;-73
2021/09/05 09:19:58;;;;;;;;;;;;;;;;;;5114248;28;20369;-73
2021/09/05 09:22:24;;;;;;;;;;;;;;;;;;5113925;28;19928;-73
2021/09/05 09:24:51;;;;;;;;;;;;;;;;;;5114206;28;19924;-73
2021/09/05 09:27:18;;;;;;;;;;;;;;;;;;5114071;28;19923;-73
2021/09/05 09:29:45;;;;;;;;;;;;;;;;;;5114374;28;19928;-73
2021/09/05 09:32:11;;;;;;;;;;;;;;;;;;5113754;28;20377;-73
2021/09/05 09:34:37;;;;;;;;;;;;;;;;;;5114284;28;19931;-73
2021/09/05 09:37:04;;;;;;;;;;;;;;;;;;5113749;28;20293;-73
2021/09/05 09:39:30;;;;;;;;;;;;;;;;;;5114075;28;19931;-73
2021/09/05 09:41:56;;;;;;;;;;;;;;;;;;5113922;28;19924;-73
2021/09/05 09:44:23;;;;;;;;;;;;;;;;;;5113791;28;19924;-73
2021/09/05 09:46:49;;;;;;;;;;;;;;;;;;5097443;28;19975;-73
2021/09/05 09:49:17;;;;;;;;;;;;;;;;;;5093020;28;20366;-73
2021/09/05 09:51:44;;;;;;;;;;;;;;;;;;5093294;28;19966;-73
2021/09/05 09:54:11;;;;;;;;;;;;;;;;;;5092099;28;20275;-73
2021/09/05 09:56:37;;;;;;;;;;;;;;;;;;5093182;28;19924;-73
2021/09/05 09:59:03;;;;;;;;;;;;;;;;;;5093065;28;19935;-73
2021/09/05 10:01:30;;;;;;;;;;;;;;;;;;5093513;28;19955;-73
2021/09/05 10:03:56;;;;;;;;;;;;;;;;;;5093169;28;20393;-73
2021/09/05 10:06:22;;;;;;;;;;;;;;;;;;5092796;28;19930;-73
2021/09/05 10:08:48;;;;;;;;;;;;;;;;;;5093201;28;19931;-73
2021/09/05 10:11:15;;;;;;;;;;;;;;;;;;5092670;28;20409;-73
2021/09/05 10:13:41;;;;;;;;;;;;;;;;;;5092995;28;19924;-73
2021/09/05 10:16:07;;;;;;;;;;;;;;;;;;5092884;28;19924;-73
2021/09/05 10:18:34;;;;;;;;;;;;;;;;;;5092876;28;20401;-73
2021/09/05 10:21:00;;;;;;;;;;;;;;;;;;5092926;28;19924;-73
2021/09/05 10:23:26;;;;;;;;;;;;;;;;;;5092496;28;20306;-73
2021/09/05 10:25:52;;;;;;;;;;;;;;;;;;5092836;28;19931;-73
2021/09/05 10:28:19;;;;;;;;;;;;;;;;;;5092703;28;19924;-73
2021/09/05 10:30:45;;;;;;;;;;;;;;;;;;5092797;28;20294;-73
2021/09/05 10:33:12;;;;;;;;;;;;;;;;;;5092423;28;19931;-73
2021/09/05 10:35:38;;;;;;;;;;;;;;;;;;5092728;28;20390;-73
2021/09/05 10:38:05;;;;;;;;;;;;;;;;;;5092614;28;19928;-73
2021/09/05 10:40:31;;;;;;;;;;;;;;;;;;5092595;28;20518;-73
2021/09/05 10:42:59;;;;;;;;;;;;;;;;;;5092882;28;19924;-73
2021/09/05 10:45:25;;;;;;;;;;;;;;;;;;5097246;28;19928;-73
2021/09/05 10:47:51;;;;;;;;;;;;;;;;;;5112727;28;20001;-73
2021/09/05 10:50:17;;;;;;;;;;;;;;;;;;5112601;28;19928;-73
2021/09/05 10:52:44;;;;;;;;;;;;;;;;;;5112694;28;19924;-73
2021/09/05 10:55:10;;;;;;;;;;;;;;;;;;5112959;28;19924;-72
2021/09/05 10:57:36;;;;;;;;;;;;;;;;;;5113081;28;20006;-74
2021/09/05 11:00:03;;;;;;;;;;;;;;;;;;5112490;28;20382;-73
2021/09/05 11:02:29;;;;;;;;;;;;;;;;;;5112735;28;19924;-73
2021/09/05 11:04:55;;;;;;;;;;;;;;;;;;5112942;28;19928;-73
2021/09/05 11:07:22;;;;;;;;;;;;;;;;;;5116455;28;20386;-73
2021/09/05 11:09:48;;;;;;;;;;;;;;;;;;5117118;28;19924;-73
2021/09/05 11:12:15;;;;;;;;;;;;;;;;;;5116572;28;20305;-71
2021/09/05 11:14:45;;;;;;;;;;;;;;;;;;5116611;28;19924;-72
2021/09/05 11:17:12;;;;;;;;;;;;;;;;;;5116748;28;20018;-72
2021/09/05 11:19:38;;;;;;;;;;;;;;;;;;5116545;28;19923;-72
2021/09/05 11:22:04;;;;;;;;;;;;;;;;;;5116620;28;19924;-72
2021/09/05 11:24:31;;;;;;;;;;;;;;;;;;5116490;28;20404;-72
2021/09/05 11:26:57;;;;;;;;;;;;;;;;;;5116743;28;19949;-72
2021/09/05 11:29:23;;;;;;;;;;;;;;;;;;5116083;28;20305;-72
2021/09/05 11:31:49;;;;;;;;;;;;;;;;;;5116198;28;19931;-72
2021/09/05 11:34:16;;;;;;;;;;;;;;;;;;5116381;28;19935;-72
2021/09/05 11:36:42;;;;;;;;;;;;;;;;;;5116403;28;20290;-72
2021/09/05 11:39:08;;;;;;;;;;;;;;;;;;5116323;28;19924;-72
2021/09/05 11:41:35;;;;;;;;;;;;;;;;;;5116415;28;19924;-72
2021/09/05 11:44:01;;;;;;;;;;;;;;;;;;5115870;28;20564;-72
2021/09/05 11:46:27;;;;;;;;;;;;;;;;;;5102661;28;19998;-72
2021/09/05 11:48:54;;;;;;;;;;;;;;;;;;5095898;28;19934;-72
2021/09/05 11:51:20;;;;;;;;;;;;;;;;;;5095575;28;19932;-72
2021/09/05 11:53:46;;;;;;;;;;;;;;;;;;5095487;28;20293;-73
2021/09/05 11:56:12;;;;;;;;;;;;;;;;;;5095193;28;19930;-73
2021/09/05 11:58:39;;;;;;;;;;;;;;;;;;5095716;28;19928;-73
2021/09/05 12:01:05;;;;;;;;;;;;;;;;;;5095086;28;20402;-72
2021/09/05 12:03:32;;;;;;;;;;;;;;;;;;5095752;28;19931;-73
2021/09/05 12:05:58;;;;;;;;;;;;;;;;;;5095445;28;19967;-72
2021/09/05 12:08:24;;;;;;;;;;;;;;;;;;5094997;28;20298;-72
2021/09/05 12:10:50;;;;;;;;;;;;;;;;;;5095208;28;19924;-72
2021/09/05 12:13:17;;;;;;;;;;;;;;;;;;5095244;28;19935;-72
2021/09/05 12:15:44;;;;;;;;;;;;;;;;;;5095053;28;20425;-73
2021/09/05 12:18:10;;;;;;;;;;;;;;;;;;5093924;28;19955;-72
2021/09/05 12:20:36;;;;;;;;;;;;;;;;;;5094922;28;20397;-72
2021/09/05 12:23:02;;;;;;;;;;;;;;;;;;5094876;28;19924;-72
2021/09/05 12:25:29;;;;;;;;;;;;;;;;;;5095084;28;19924;-72
2021/09/05 12:27:55;;;;;;;;;;;;;;;;;;5094711;28;20491;-72
2021/09/05 12:30:21;;;;;;;;;;;;;;;;;;5094604;28;19985;-73
2021/09/05 12:32:48;;;;;;;;;;;;;;;;;;5094843;28;19924;-73
2021/09/05 12:35:14;;;;;;;;;;;;;;;;;;5094855;28;19924;-73
2021/09/05 12:37:40;;;;;;;;;;;;;;;;;;5094536;28;19924;-72
2021/09/05 12:40:06;;;;;;;;;;;;;;;;;;5094967;28;19928;-72
2021/09/05 12:42:33;;;;;;;;;;;;;;;;;;5094752;28;20374;-72
2021/09/05 12:44:59;;;;;;;;;;;;;;;;;;5095530;28;19930;-72
2021/09/05 12:47:25;;;;;;;;;;;;;;;;;;5114745;28;19924;-72
2021/09/05 12:49:52;;;;;;;;;;;;;;;;;;5115225;28;19923;-73
2021/09/05 12:52:18;;;;;;;;;;;;;;;;;;5114549;28;19931;-72
2021/09/05 12:54:44;;;;;;;;;;;;;;;;;;5115143;28;19924;-73
2021/09/05 12:57:11;;;;;;;;;;;;;;;;;;5114563;28;20316;-72
2021/09/05 12:59:37;;;;;;;;;;;;;;;;;;5114608;28;19928;-73
2021/09/05 13:02:03;;;;;;;;;;;;;;;;;;5114799;28;19930;-72
2021/09/05 13:04:30;;;;;;;;;;;;;;;;;;5114698;28;19923;-73
2021/09/05 13:06:56;;;;;;;;;;;;;;;;;;5114850;28;19923;-73
2021/09/05 13:09:22;;;;;;;;;;;;;;;;;;5114224;28;19931;-73
2021/09/05 13:11:51;;;;;;;;;;;;;;;;;;5114713;28;19928;-73
2021/09/05 13:14:17;;;;;;;;;;;;;;;;;;5114070;28;19982;-72
2021/09/05 13:16:43;;;;;;;;;;;;;;;;;;5114837;28;19931;-72
2021/09/05 13:19:09;;;;;;;;;;;;;;;;;;5114593;28;19946;-72
2021/09/05 13:21:36;;;;;;;;;;;;;;;;;;5114109;28;19934;-73
2021/09/05 13:24:02;;;;;;;;;;;;;;;;;;5114059;28;19984;-72
2021/09/05 13:26:28;;;;;;;;;;;;;;;;;;5114078;28;19927;-72
2021/09/05 13:28:55;;;;;;;;;;;;;;;;;;5114102;28;19931;-73
2021/09/05 13:31:21;;;;;;;;;;;;;;;;;;5114159;28;20271;-72
2021/09/05 13:33:47;;;;;;;;;;;;;;;;;;5114019;28;19927;-72
2021/09/05 13:36:14;;;;;;;;;;;;;;;;;;5113925;28;19924;-72
2021/09/05 13:38:40;;;;;;;;;;;;;;;;;;5113870;28;20412;-72
2021/09/05 13:41:06;;;;;;;;;;;;;;;;;;5113522;28;19931;-73
2021/09/05 13:43:32;;;;;;;;;;;;;;;;;;5114186;28;20285;-72
2021/09/05 13:45:59;;;;;;;;;;;;;;;;;;5104401;28;19924;-73
2021/09/05 13:48:25;;;;;;;;;;;;;;;;;;5093178;28;19924;-73
2021/09/05 13:50:51;;;;;;;;;;;;;;;;;;5093595;28;19924;-73
2021/09/05 13:53:18;;;;;;;;;;;;;;;;;;5092925;28;19935;-72
2021/09/05 13:55:44;;;;;;;;;;;;;;;;;;5093453;28;19924;-72
2021/09/05 13:58:10;;;;;;;;;;;;;;;;;;5092906;28;20400;-72
2021/09/05 14:00:36;;;;;;;;;;;;;;;;;;5093105;28;19931;-72
2021/09/05 14:03:03;;;;;;;;;;;;;;;;;;5092969;28;19924;-72
2021/09/05 14:05:29;;;;;;;;;;;;;;;;;;5093344;28;20363;-72
2021/09/05 14:07:55;;;;;;;;;;;;;;;;;;5092956;28;19924;-72
2021/09/05 14:10:22;;;;;;;;;;;;;;;;;;5092788;28;20386;-72
2021/09/05 14:12:48;;;;;;;;;;;;;;;;;;5092962;28;19928;-72
2021/09/05 14:15:14;;;;;;;;;;;;;;;;;;5093234;28;19924;-72
2021/09/05 14:17:41;;;;;;;;;;;;;;;;;;5093136;28;20394;-72
2021/09/05 14:20:07;;;;;;;;;;;;;;;;;;5092655;28;19924;-72
2021/09/05 14:22:33;;;;;;;;;;;;;;;;;;5092791;28;20296;-72
2021/09/05 14:25:00;;;;;;;;;;;;;;;;;;5092689;28;20009;-72
2021/09/05 14:27:32;;;;;;;;;;;;;;;;;;5092752;28;20400;-72
2021/09/05 14:30:03;;;;;;;;;;;;;;;;;;5093122;28;20010;-72
2021/09/05 14:32:35;;;;;;;;;;;;;;;;;;5093061;28;19924;-72
2021/09/05 14:35:16;;;;;;;;;;;;;;;;;;5092734;28;19931;-72
2021/09/05 14:48:43;;;;;;;;;;;;;;;;;;5113049;28;20048;-73
2021/09/05 14:51:29;;;;;;;;;;;;;;;;;;5112993;28;19931;-72
2021/09/05 14:56:38;;;;;;;;;;;;;;;;;;5071315;28;19920;-72
2021/09/05 14:59:10;;;;;;;;;;;;;;;;;;5112702;28;19928;-73
2021/09/05 15:01:39;;;;;;;;;;;;;;;;;;5113006;28;19946;-72
2021/09/05 15:04:14;;;;;;;;;;;;;;;;;;5112714;28;19999;-72
2021/09/05 15:06:54;;;;;;;;;;;;;;;;;;5112611;28;19924;-72
2021/09/05 15:12:04;;;;;;;;;;;;;;;;;;5112634;28;20011;-72
2021/09/05 15:14:31;;;;;;;;;;;;;;;;;;5112662;28;19924;-72
2021/09/05 15:16:57;;;;;;;;;;;;;;;;;;5112918;28;19931;-72
2021/09/05 15:19:23;;;;;;;;;;;;;;;;;;5112326;28;20287;-72
2021/09/05 15:21:54;;;;;;;;;;;;;;;;;;5112574;28;19923;-73
2021/09/05 15:24:20;;;;;;;;;;;;;;;;;;5112094;28;19938;-72
2021/09/05 15:26:55;;;;;;;;;;;;;;;;;;5112808;28;19924;-73
2021/09/05 15:29:35;;;;;;;;;;;;;;;;;;5112517;28;19924;-73
2021/09/05 15:32:15;;;;;;;;;;;;;;;;;;5112155;28;19971;-72
2021/09/05 15:51:22;;;;;;;;;;;;;;;;;;5092128;28;19962;-72
2021/09/05 15:53:51;;;;;;;;;;;;;;;;;;5095658;28;20321;-72
2021/09/05 15:56:17;;;;;;;;;;;;;;;;;;5095639;28;19924;-72
2021/09/05 15:58:45;;;;;;;;;;;;;;;;;;5095494;28;19924;-72
2021/09/05 16:01:27;;;;;;;;;;;;;;;;;;5094954;28;20287;-72
2021/09/05 16:06:53;;;;;;;;;;;;;;;;;;5095560;28;19918;-73
2021/09/05 16:17:31;;;;;;;;;;;;;;;;;;5095274;28;19919;-72
2021/09/05 16:19:58;;;;;;;;;;;;;;;;;;5095397;28;19931;-72
2021/09/05 16:22:24;;;;;;;;;;;;;;;;;;5094782;28;19948;-71
2021/09/05 16:24:50;;;;;;;;;;;;;;;;;;5094981;28;19924;-71
2021/09/05 16:27:22;;;;;;;;;;;;;;;;;;5094764;28;19966;-71
2021/09/05 16:29:52;;;;;;;;;;;;;;;;;;5095247;28;19931;-72
2021/09/05 16:32:22;;;;;;;;;;;;;;;;;;5094649;28;19924;-72
2021/09/05 16:34:56;;;;;;;;;;;;;;;;;;5094994;28;19928;-72
2021/09/05 16:37:29;;;;;;;;;;;;;;;;;;5094542;28;19974;-72
2021/09/05 16:42:39;;;;;;;;;;;;;;;;;;5094787;28;19923;-73
2021/09/05 16:45:06;;;;;;;;;;;;;;;;;;5096212;28;19931;-73
2021/09/05 16:47:34;;;;;;;;;;;;;;;;;;5114862;28;19930;-73
2021/09/05 16:50:00;;;;;;;;;;;;;;;;;;5114850;28;20023;-73
2021/09/05 16:52:26;;;;;;;;;;;;;;;;;;5114815;28;20277;-73
2021/09/05 16:54:53;;;;;;;;;;;;;;;;;;5114701;28;19938;-73
2021/09/05 16:57:19;;;;;;;;;;;;;;;;;;5114383;28;19934;-73
2021/09/05 16:59:45;;;;;;;;;;;;;;;;;;5114997;28;19923;-72
2021/09/05 17:02:12;;;;;;;;;;;;;;;;;;5114224;28;19924;-73
2021/09/05 17:04:38;;;;;;;;;;;;;;;;;;5114430;28;19931;-73
2021/09/05 17:07:04;;;;;;;;;;;;;;;;;;5114268;28;20274;-73
2021/09/05 17:09:30;;;;;;;;;;;;;;;;;;5114516;28;19924;-73
2021/09/05 17:11:57;;;;;;;;;;;;;;;;;;5114699;28;19923;-74
2021/09/05 17:14:23;;;;;;;;;;;;;;;;;;5114430;28;20309;-73
2021/09/05 17:16:49;;;;;;;;;;;;;;;;;;5114250;28;19928;-71
2021/09/05 17:19:16;;;;;;;;;;;;;;;;;;5113986;28;19928;-71
2021/09/05 17:21:42;;;;;;;;;;;;;;;;;;5114393;28;19924;-72
2021/09/05 17:24:08;;;;;;;;;;;;;;;;;;5114011;28;19923;-72
2021/09/05 17:26:35;;;;;;;;;;;;;;;;;;5114282;28;20027;-72
2021/09/05 17:29:01;;;;;;;;;;;;;;;;;;5114216;28;19924;-75